Pagrindinis puslapis
METAR-TAF:

METAR-TAF

Oro uostai :

Ambler, Aliaska, Jungtinės Amerikos Valstijos

platuma: 67-06N, ilguma: 157-51W, Aukštis: 88 m

Dabartinis oras

Ataskaita buvo paskelbta 22 minutes, ne 20:08 UTC
Vėjas 3 kt iš Rytų/Šiaurės Rytų
Temperatūra -15°C
Drėgmė 85%
Slėgis 1023 hPa
Matomumas: 16.1 km
Išsisklaidę debesys ne aukštis 500 ft
Apsiniaukę ne aukštis 3900 ft

METAR: PAFM 282008Z AUTO 07003KT 10SM SCT005 OVC039 M15/M17 A3020 RMK AO2 FZRANO

Laikas: 12:30 (20:30 UTC)


TAF: trūkstamas

Orai ataskaitas ir orų prognozės (METAR, TAF).

turimą stotys yra geltonos ir raudonos taškus žemėlapyje.

Perkelti pele per norėdami pamatyti stoties vardą.

Tada spustelėkite, norėdami matyti oro stebėjimo ir prognozės.

Norėdami pakeisti žemėlapį: spustelėkite ant žalios mygtukų su juodo kryžiaus žemyn,; žalią mygtuką su brūkšneliu, jei norite nutolinti; arba žalių rodyklių gretimoms žemėlapius.


METAR-TAF: